Time,TemperatureF,DewpointF,PressureIn,WindDirection,WindDirectionDegrees,WindSpeedMPH,WindSpeedGustMPH,Humidity,HourlyPrecipIn,Conditions,Clouds,dailyrainin,SoftwareType,DateUTC
2013-09-24 00:02:00,52.7,38.8,30.06,North,-999,0.0,0.0,59,0.00,,,-99.99,FreeWX 2.04,2013-09-24 04:02:00,
2013-09-24 00:12:00,52.5,39.0,30.06,North,-999,0.0,0.0,60,0.00,,,-99.99,FreeWX 2.04,2013-09-24 04:12:00,
2013-09-24 00:22:00,52.5,39.9,30.06,North,-999,0.0,0.0,62,0.00,,,-99.99,FreeWX 2.04,2013-09-24 04:22:00,
2013-09-24 00:32:00,52.3,39.7,30.06,North,-999,0.0,0.0,62,0.00,,,-99.99,FreeWX 2.04,2013-09-24 04:32:00,
2013-09-24 00:42:00,52.0,39.7,30.06,North,-999,0.0,0.0,63,0.00,,,-99.99,FreeWX 2.04,2013-09-24 04:42:00,
2013-09-24 00:52:00,52.0,39.7,30.06,North,-999,0.0,0.0,63,0.00,,,-99.99,FreeWX 2.04,2013-09-24 04:52:00,
2013-09-24 01:02:00,51.8,39.6,30.06,North,-999,0.0,0.0,63,0.00,,,-99.99,FreeWX 2.04,2013-09-24 05:02:00,
2013-09-24 01:12:00,51.4,39.2,30.06,North,-999,0.0,0.0,63,0.00,,,-99.99,FreeWX 2.04,2013-09-24 05:12:00,
2013-09-24 01:22:00,51.3,39.0,30.06,North,-999,0.0,0.0,63,0.00,,,-99.99,FreeWX 2.04,2013-09-24 05:22:00,
2013-09-24 01:32:00,50.5,37.6,30.06,North,-999,0.0,0.0,61,0.00,,,-99.99,FreeWX 2.04,2013-09-24 05:32:00,
2013-09-24 01:42:00,50.2,37.2,30.06,North,-999,0.0,0.0,61,0.00,,,-99.99,FreeWX 2.04,2013-09-24 05:42:00,
2013-09-24 01:52:00,49.8,36.9,30.06,North,-999,0.0,0.0,61,0.00,,,-99.99,FreeWX 2.04,2013-09-24 05:52:00,
2013-09-24 02:02:00,50.2,38.1,30.06,North,-999,0.0,0.0,63,0.00,,,-99.99,FreeWX 2.04,2013-09-24 06:02:00,
2013-09-24 02:12:00,50.0,37.6,30.06,North,-999,0.0,0.0,62,0.00,,,-99.99,FreeWX 2.04,2013-09-24 06:12:00,
2013-09-24 02:22:00,49.6,37.2,30.06,North,-999,0.0,0.0,62,0.00,,,-99.99,FreeWX 2.04,2013-09-24 06:22:00,
2013-09-24 02:32:00,49.1,36.3,30.06,North,-999,0.0,0.0,61,0.00,,,-99.99,FreeWX 2.04,2013-09-24 06:32:00,
2013-09-24 02:42:00,48.9,36.1,30.06,North,-999,0.0,0.0,61,0.00,,,-99.99,FreeWX 2.04,2013-09-24 06:42:00,
2013-09-24 02:52:00,48.6,35.8,30.06,North,-999,0.0,0.0,61,0.00,,,-99.99,FreeWX 2.04,2013-09-24 06:52:00,
2013-09-24 03:02:00,48.6,35.8,30.06,North,-999,0.0,0.0,61,0.00,,,-99.99,FreeWX 2.04,2013-09-24 07:02:00,
2013-09-24 03:12:00,48.2,35.4,30.06,North,-999,0.0,0.0,61,0.00,,,-99.99,FreeWX 2.04,2013-09-24 07:12:00,
2013-09-24 03:22:00,48.4,36.3,30.06,North,-999,0.0,0.0,63,0.00,,,-99.99,FreeWX 2.04,2013-09-24 07:22:00,
2013-09-24 03:32:00,48.2,35.8,30.06,North,-999,0.0,0.0,62,0.00,,,-99.99,FreeWX 2.04,2013-09-24 07:32:00,
2013-09-24 03:42:00,48.0,35.6,30.06,North,-999,0.0,0.0,62,0.00,,,-99.99,FreeWX 2.04,2013-09-24 07:42:00,
2013-09-24 03:52:00,48.0,35.6,30.06,North,-999,0.0,0.0,62,0.00,,,-99.99,FreeWX 2.04,2013-09-24 07:52:00,
2013-09-24 04:02:00,47.7,35.2,30.06,North,-999,0.0,0.0,62,0.00,,,-99.99,FreeWX 2.04,2013-09-24 08:02:00,
2013-09-24 04:12:00,47.5,35.1,30.06,North,-999,0.0,0.0,62,0.00,,,-99.99,FreeWX 2.04,2013-09-24 08:12:00,
2013-09-24 04:22:00,47.1,34.7,30.06,North,-999,0.0,0.0,62,0.00,,,-99.99,FreeWX 2.04,2013-09-24 08:22:00,
2013-09-24 04:32:00,46.9,34.5,30.06,North,-999,0.0,0.0,62,0.00,,,-99.99,FreeWX 2.04,2013-09-24 08:32:00,
2013-09-24 04:42:00,46.9,35.1,30.06,North,-999,0.0,0.0,63,0.00,,,-99.99,FreeWX 2.04,2013-09-24 08:42:00,
2013-09-24 04:52:00,46.8,34.9,30.06,North,-999,0.0,0.0,63,0.00,,,-99.99,FreeWX 2.04,2013-09-24 08:52:00,
2013-09-24 05:02:00,46.9,35.1,30.06,North,-999,0.0,0.0,63,0.00,,,-99.99,FreeWX 2.04,2013-09-24 09:02:00,
2013-09-24 05:12:00,46.8,34.9,30.06,North,-999,0.0,0.0,63,0.00,,,-99.99,FreeWX 2.04,2013-09-24 09:12:00,
2013-09-24 05:22:00,46.8,35.2,30.06,North,-999,0.0,0.0,64,0.00,,,-99.99,FreeWX 2.04,2013-09-24 09:22:00,
2013-09-24 05:32:00,46.8,34.9,30.06,North,-999,0.0,0.0,63,0.00,,,-99.99,FreeWX 2.04,2013-09-24 09:32:00,
2013-09-24 05:42:00,46.8,34.9,30.06,North,-999,0.0,0.0,63,0.00,,,-99.99,FreeWX 2.04,2013-09-24 09:42:00,
2013-09-24 05:52:00,46.9,35.4,30.06,North,-999,0.0,0.0,64,0.00,,,-99.99,FreeWX 2.04,2013-09-24 09:52:00,
2013-09-24 06:02:00,46.9,35.4,30.06,North,-999,0.0,0.0,64,0.00,,,-99.99,FreeWX 2.04,2013-09-24 10:02:00,
2013-09-24 06:12:00,47.1,35.6,30.06,North,-999,0.0,0.0,64,0.00,,,-99.99,FreeWX 2.04,2013-09-24 10:12:00,
2013-09-24 06:22:00,47.3,35.8,30.06,North,-999,0.0,0.0,64,0.00,,,-99.99,FreeWX 2.04,2013-09-24 10:22:00,
2013-09-24 06:32:00,47.3,35.8,30.06,North,-999,0.0,0.0,64,0.00,,,-99.99,FreeWX 2.04,2013-09-24 10:32:00,
2013-09-24 06:42:00,47.1,35.6,30.06,North,-999,0.0,0.0,64,0.00,,,-99.99,FreeWX 2.04,2013-09-24 10:42:00,
2013-09-24 06:52:00,47.3,36.1,30.06,North,-999,0.0,0.0,65,0.00,,,-99.99,FreeWX 2.04,2013-09-24 10:52:00,
2013-09-24 07:02:00,47.3,35.8,30.06,North,-999,0.0,0.0,64,0.00,,,-99.99,FreeWX 2.04,2013-09-24 11:02:00,
2013-09-24 07:12:00,47.1,35.6,30.06,North,-999,0.0,0.0,64,0.00,,,-99.99,FreeWX 2.04,2013-09-24 11:12:00,
2013-09-24 07:22:00,47.1,36.0,30.06,North,-999,0.0,0.0,65,0.00,,,-99.99,FreeWX 2.04,2013-09-24 11:22:00,
2013-09-24 07:32:00,47.1,36.0,30.06,North,-999,0.0,0.0,65,0.00,,,-99.99,FreeWX 2.04,2013-09-24 11:32:00,
2013-09-24 07:42:00,47.1,36.0,30.09,North,-999,0.0,0.0,65,0.00,,,-99.99,FreeWX 2.04,2013-09-24 11:42:00,
2013-09-24 07:52:00,47.3,36.1,30.06,North,-999,0.0,0.0,65,0.00,,,-99.99,FreeWX 2.04,2013-09-24 11:52:00,
2013-09-24 08:02:00,47.8,37.8,30.06,North,-999,0.0,0.0,68,0.00,,,-99.99,FreeWX 2.04,2013-09-24 12:02:00,
2013-09-24 08:12:00,47.8,37.4,30.09,North,-999,0.0,0.0,67,0.00,,,-99.99,FreeWX 2.04,2013-09-24 12:12:00,
2013-09-24 08:22:00,48.0,37.6,30.09,North,-999,0.0,0.0,67,0.00,,,-99.99,FreeWX 2.04,2013-09-24 12:22:00,
2013-09-24 08:32:00,48.2,37.8,30.09,North,-999,0.0,0.0,67,0.00,,,-99.99,FreeWX 2.04,2013-09-24 12:32:00,
2013-09-24 08:42:00,48.6,38.5,30.09,North,-999,0.0,0.0,68,0.00,,,-99.99,FreeWX 2.04,2013-09-24 12:42:00,
2013-09-24 08:52:00,49.1,39.0,30.09,North,-999,0.0,0.0,68,0.00,,,-99.99,FreeWX 2.04,2013-09-24 12:52:00,
2013-09-24 09:02:00,49.8,40.1,30.09,North,-999,0.0,0.0,69,0.00,,,-99.99,FreeWX 2.04,2013-09-24 13:02:00,
2013-09-24 09:12:00,50.4,41.0,30.09,North,-999,0.0,0.0,70,0.00,,,-99.99,FreeWX 2.04,2013-09-24 13:12:00,
2013-09-24 09:22:00,51.1,40.8,30.09,North,-999,0.0,0.0,68,0.00,,,-99.99,FreeWX 2.04,2013-09-24 13:22:00,
2013-09-24 09:32:00,52.0,41.4,30.09,North,-999,0.0,0.0,67,0.00,,,-99.99,FreeWX 2.04,2013-09-24 13:32:00,
2013-09-24 09:42:00,52.9,41.4,30.09,North,-999,0.0,0.0,65,0.00,,,-99.99,FreeWX 2.04,2013-09-24 13:42:00,
2013-09-24 09:52:00,54.1,41.9,30.09,North,-999,0.0,0.0,63,0.00,,,-99.99,FreeWX 2.04,2013-09-24 13:52:00,
2013-09-24 10:02:00,55.0,40.5,30.09,North,-999,0.0,0.0,58,0.00,,,-99.99,FreeWX 2.04,2013-09-24 14:02:00,
2013-09-24 10:12:00,56.8,40.8,30.09,North,-999,0.0,0.0,55,0.00,,,-99.99,FreeWX 2.04,2013-09-24 14:12:00,
2013-09-24 10:22:00,58.3,39.7,30.06,North,-999,0.0,0.0,50,0.00,,,-99.99,FreeWX 2.04,2013-09-24 14:22:00,
2013-09-24 10:32:00,59.9,37.9,30.06,North,-999,0.0,0.0,44,0.00,,,-99.99,FreeWX 2.04,2013-09-24 14:32:00,
2013-09-24 10:42:00,61.0,37.0,30.06,North,-999,0.0,0.0,41,0.00,,,-99.99,FreeWX 2.04,2013-09-24 14:42:00,
2013-09-24 10:53:00,61.7,35.2,30.06,North,-999,0.0,3.1,37,0.00,,,-99.99,FreeWX 2.04,2013-09-24 14:53:00,
2013-09-24 11:03:00,63.0,34.9,30.06,North,-999,0.0,4.9,35,0.00,,,-99.99,FreeWX 2.04,2013-09-24 15:03:00,
2013-09-24 11:13:00,64.2,36.0,30.06,North,-999,0.0,3.6,35,0.00,,,-99.99,FreeWX 2.04,2013-09-24 15:13:00,
2013-09-24 11:23:00,66.0,32.9,30.06,North,-999,0.0,3.1,29,0.00,,,-99.99,FreeWX 2.04,2013-09-24 15:23:00,
2013-09-24 11:33:00,66.7,32.5,30.06,North,-999,0.0,2.7,28,0.00,,,-99.99,FreeWX 2.04,2013-09-24 15:33:00,
2013-09-24 11:43:00,67.5,33.3,30.06,North,-999,0.0,4.0,28,0.00,,,-99.99,FreeWX 2.04,2013-09-24 15:43:00,
2013-09-24 11:53:00,68.4,32.2,30.06,North,-999,0.0,0.0,26,0.00,,,-99.99,FreeWX 2.04,2013-09-24 15:53:00,
2013-09-24 12:03:00,69.3,32.0,30.06,North,-999,0.0,0.0,25,0.00,,,-99.99,FreeWX 2.04,2013-09-24 16:03:00,
2013-09-24 12:13:00,70.5,30.9,30.03,North,-999,0.0,3.1,23,0.00,,,-99.99,FreeWX 2.04,2013-09-24 16:13:00,
2013-09-24 12:23:00,70.3,31.8,30.03,North,-999,0.0,4.5,24,0.00,,,-99.99,FreeWX 2.04,2013-09-24 16:23:00,
2013-09-24 12:33:00,71.2,30.4,30.03,North,-999,0.0,4.0,22,0.00,,,-99.99,FreeWX 2.04,2013-09-24 16:33:00,
2013-09-24 12:43:00,72.0,31.1,30.03,North,-999,0.0,3.6,22,0.00,,,-99.99,FreeWX 2.04,2013-09-24 16:43:00,
2013-09-24 12:53:00,72.9,31.8,30.03,North,-999,0.0,3.1,22,0.00,,,-99.99,FreeWX 2.04,2013-09-24 16:53:00,
2013-09-24 13:03:00,73.8,31.5,30.03,North,-999,0.0,3.6,21,0.00,,,-99.99,FreeWX 2.04,2013-09-24 17:03:00,
2013-09-24 13:13:00,74.7,32.2,30.03,North,-999,0.0,0.0,21,0.00,,,-99.99,FreeWX 2.04,2013-09-24 17:13:00,
2013-09-24 13:23:00,75.6,34.0,30.00,North,-999,0.0,0.0,22,0.00,,,-99.99,FreeWX 2.04,2013-09-24 17:23:00,
2013-09-24 13:33:00,75.9,32.0,30.00,North,-999,0.0,2.7,20,0.00,,,-99.99,FreeWX 2.04,2013-09-24 17:33:00,
2013-09-24 13:43:00,76.1,32.2,30.00,North,-999,0.0,0.0,20,0.00,,,-99.99,FreeWX 2.04,2013-09-24 17:43:00,
2013-09-24 13:53:00,76.6,32.5,30.00,North,-999,0.0,2.7,20,0.00,,,-99.99,FreeWX 2.04,2013-09-24 17:53:00,
2013-09-24 14:03:00,77.4,33.1,30.00,North,-999,0.0,2.7,20,0.00,,,-99.99,FreeWX 2.04,2013-09-24 18:03:00,
2013-09-24 14:13:00,77.9,33.6,30.00,North,-999,0.0,0.0,20,0.00,,,-99.99,FreeWX 2.04,2013-09-24 18:13:00,
2013-09-24 14:23:00,77.7,34.7,30.00,North,-999,0.0,0.0,21,0.00,,,-99.99,FreeWX 2.04,2013-09-24 18:23:00,
2013-09-24 14:33:00,77.9,33.6,30.00,North,-999,0.0,0.0,20,0.00,,,-99.99,FreeWX 2.04,2013-09-24 18:33:00,
2013-09-24 14:43:00,78.4,34.0,29.97,North,-999,0.0,0.0,20,0.00,,,-99.99,FreeWX 2.04,2013-09-24 18:43:00,
2013-09-24 14:53:00,78.8,30.4,29.97,North,-999,0.0,0.0,17,0.00,,,-99.99,FreeWX 2.04,2013-09-24 18:53:00,
2013-09-24 15:03:00,79.2,34.7,29.97,North,-999,0.0,0.0,20,0.00,,,-99.99,FreeWX 2.04,2013-09-24 19:03:00,
2013-09-24 15:13:00,79.3,34.7,29.97,North,-999,0.0,0.0,20,0.00,,,-99.99,FreeWX 2.04,2013-09-24 19:13:00,
2013-09-24 15:23:00,79.9,34.0,29.97,North,-999,0.0,0.0,19,0.00,,,-99.99,FreeWX 2.04,2013-09-24 19:23:00,
2013-09-24 15:33:00,79.5,34.9,29.97,North,-999,0.0,0.0,20,0.00,,,-99.99,FreeWX 2.04,2013-09-24 19:33:00,
2013-09-24 15:43:00,79.5,34.9,29.94,North,-999,0.0,0.0,20,0.00,,,-99.99,FreeWX 2.04,2013-09-24 19:43:00,
2013-09-24 15:53:00,79.2,34.7,29.94,North,-999,0.0,0.0,20,0.00,,,-99.99,FreeWX 2.04,2013-09-24 19:53:00,
2013-09-24 16:03:00,79.2,34.7,29.94,North,-999,0.0,0.0,20,0.00,,,-99.99,FreeWX 2.04,2013-09-24 20:03:00,
2013-09-24 16:13:00,78.4,34.0,29.94,North,-999,0.0,0.0,20,0.00,,,-99.99,FreeWX 2.04,2013-09-24 20:13:00,
2013-09-24 16:23:00,77.7,34.7,29.94,North,-999,0.0,4.0,21,0.00,,,-99.99,FreeWX 2.04,2013-09-24 20:23:00,
2013-09-24 16:33:00,76.6,33.8,29.94,North,-999,0.0,0.0,21,0.00,,,-99.99,FreeWX 2.04,2013-09-24 20:33:00,
2013-09-24 16:54:00,73.9,34.9,29.94,North,-999,0.0,0.0,24,0.00,,,-99.99,FreeWX 2.04,2013-09-24 20:54:00,
2013-09-24 17:14:00,72.9,42.1,29.91,North,-999,0.0,0.0,33,0.00,,,-99.99,FreeWX 2.04,2013-09-24 21:14:00,
2013-09-24 17:35:00,72.0,41.4,29.91,North,-999,0.0,0.0,33,0.00,,,-99.99,FreeWX 2.04,2013-09-24 21:35:00,
2013-09-24 17:45:00,71.6,41.7,29.91,North,-999,0.0,0.0,34,0.00,,,-99.99,FreeWX 2.04,2013-09-24 21:45:00,
2013-09-24 17:55:00,71.2,42.1,29.91,North,-999,0.0,0.0,35,0.00,,,-99.99,FreeWX 2.04,2013-09-24 21:55:00,
2013-09-24 18:05:00,70.9,42.6,29.94,North,-999,0.0,0.0,36,0.00,,,-99.99,FreeWX 2.04,2013-09-24 22:05:00,
2013-09-24 18:15:00,70.7,43.2,29.94,North,-999,0.0,0.0,37,0.00,,,-99.99,FreeWX 2.04,2013-09-24 22:15:00,
2013-09-24 18:25:00,70.5,44.4,29.91,North,-999,0.0,0.0,39,0.00,,,-99.99,FreeWX 2.04,2013-09-24 22:25:00,
2013-09-24 18:35:00,70.0,43.2,29.91,North,-999,0.0,0.0,38,0.00,,,-99.99,FreeWX 2.04,2013-09-24 22:35:00,
2013-09-24 18:45:00,69.6,44.2,29.91,North,-999,0.0,0.0,40,0.00,,,-99.99,FreeWX 2.04,2013-09-24 22:45:00,
2013-09-24 18:55:00,68.9,44.8,29.94,North,-999,0.0,0.0,42,0.00,,,-99.99,FreeWX 2.04,2013-09-24 22:55:00,
2013-09-24 19:05:00,68.2,45.5,29.91,North,-999,0.0,0.0,44,0.00,,,-99.99,FreeWX 2.04,2013-09-24 23:05:00,
2013-09-24 19:15:00,67.6,46.0,29.91,North,-999,0.0,0.0,46,0.00,,,-99.99,FreeWX 2.04,2013-09-24 23:15:00,
2013-09-24 19:25:00,67.1,47.8,29.94,North,-999,0.0,0.0,50,0.00,,,-99.99,FreeWX 2.04,2013-09-24 23:25:00,
2013-09-24 19:45:00,66.2,48.0,29.91,North,-999,0.0,0.0,52,0.00,,,-99.99,FreeWX 2.04,2013-09-24 23:45:00,
2013-09-24 19:55:00,65.8,48.2,29.91,North,-999,0.0,0.0,53,0.00,,,-99.99,FreeWX 2.04,2013-09-24 23:55:00,
2013-09-24 20:05:00,65.5,47.8,29.91,North,-999,0.0,0.0,53,0.00,,,-99.99,FreeWX 2.04,2013-09-25 00:05:00,
2013-09-24 20:15:00,65.1,48.0,29.91,North,-999,0.0,0.0,54,0.00,,,-99.99,FreeWX 2.04,2013-09-25 00:15:00,
2013-09-24 20:25:00,64.8,48.7,29.91,North,-999,0.0,0.0,56,0.00,,,-99.99,FreeWX 2.04,2013-09-25 00:25:00,
2013-09-24 20:35:00,64.4,49.3,29.91,North,-999,0.0,0.0,58,0.00,,,-99.99,FreeWX 2.04,2013-09-25 00:35:00,
2013-09-24 20:45:00,64.0,48.9,29.91,North,-999,0.0,0.0,58,0.00,,,-99.99,FreeWX 2.04,2013-09-25 00:45:00,
2013-09-24 20:55:00,63.5,48.0,29.91,North,-999,0.0,0.0,57,0.00,,,-99.99,FreeWX 2.04,2013-09-25 00:55:00,
2013-09-24 21:05:00,63.0,48.0,29.91,North,-999,0.0,0.0,58,0.00,,,-99.99,FreeWX 2.04,2013-09-25 01:05:00,
2013-09-24 21:15:00,63.0,48.4,29.91,North,-999,0.0,0.0,59,0.00,,,-99.99,FreeWX 2.04,2013-09-25 01:15:00,
2013-09-24 21:25:00,62.6,48.0,29.94,North,-999,0.0,0.0,59,0.00,,,-99.99,FreeWX 2.04,2013-09-25 01:25:00,
2013-09-24 21:35:00,62.2,47.7,29.94,North,-999,0.0,0.0,59,0.00,,,-99.99,FreeWX 2.04,2013-09-25 01:35:00,
2013-09-24 21:45:00,61.9,46.9,29.94,North,-999,0.0,0.0,58,0.00,,,-99.99,FreeWX 2.04,2013-09-25 01:45:00,
2013-09-24 21:55:00,61.7,47.3,29.94,North,-999,0.0,0.0,59,0.00,,,-99.99,FreeWX 2.04,2013-09-25 01:55:00,
2013-09-24 22:05:00,61.2,46.2,29.94,North,-999,0.0,0.0,58,0.00,,,-99.99,FreeWX 2.04,2013-09-25 02:05:00,
2013-09-24 22:15:00,60.8,46.4,29.94,North,-999,0.0,0.0,59,0.00,,,-99.99,FreeWX 2.04,2013-09-25 02:15:00,
2013-09-24 22:25:00,60.6,46.6,29.94,North,-999,0.0,0.0,60,0.00,,,-99.99,FreeWX 2.04,2013-09-25 02:25:00,
2013-09-24 22:35:00,60.6,48.0,29.94,North,-999,0.0,0.0,63,0.00,,,-99.99,FreeWX 2.04,2013-09-25 02:35:00,
2013-09-24 22:45:00,60.4,47.3,29.94,North,-999,0.0,0.0,62,0.00,,,-99.99,FreeWX 2.04,2013-09-25 02:45:00,
2013-09-24 22:55:00,60.1,46.9,29.94,North,-999,0.0,0.0,62,0.00,,,-99.99,FreeWX 2.04,2013-09-25 02:55:00,
2013-09-24 23:05:00,59.9,46.8,29.94,North,-999,0.0,0.0,62,0.00,,,-99.99,FreeWX 2.04,2013-09-25 03:05:00,
2013-09-24 23:15:00,60.1,47.5,29.94,North,-999,0.0,0.0,63,0.00,,,-99.99,FreeWX 2.04,2013-09-25 03:15:00,
2013-09-24 23:25:00,59.7,47.1,29.94,North,-999,0.0,0.0,63,0.00,,,-99.99,FreeWX 2.04,2013-09-25 03:25:00,
2013-09-24 23:35:00,59.4,46.8,29.94,North,-999,0.0,0.0,63,0.00,,,-99.99,FreeWX 2.04,2013-09-25 03:35:00,
2013-09-24 23:45:00,59.2,46.9,29.94,North,-999,0.0,0.0,64,0.00,,,-99.99,FreeWX 2.04,2013-09-25 03:45:00,
2013-09-24 23:55:00,59.5,48.2,29.91,North,-999,0.0,0.0,66,0.00,,,-99.99,FreeWX 2.04,2013-09-25 03:55:00,